createdAt,value
2022-12-14T00:01:36.964Z,91.30
2022-12-14T00:04:03.528Z,91.20
2022-12-14T00:06:32.257Z,92.50
2022-12-14T00:09:03.824Z,97.20
2022-12-14T00:11:33.439Z,101.90
2022-12-14T00:14:01.706Z,92.90
2022-12-14T00:16:31.487Z,90.70
2022-12-14T00:18:59.708Z,102.90
2022-12-14T00:21:26.804Z,123.20
2022-12-14T00:23:54.168Z,120.10
2022-12-14T00:26:26.324Z,117.50
2022-12-14T00:28:54.482Z,105.80
2022-12-14T00:31:22.341Z,107.80
2022-12-14T00:33:49.737Z,121.20
2022-12-14T00:36:17.427Z,112.20
2022-12-14T00:38:44.551Z,124.90
2022-12-14T00:41:11.884Z,131.10
2022-12-14T00:43:38.481Z,130.50
2022-12-14T00:46:05.407Z,136.00
2022-12-14T00:48:33.318Z,145.80
2022-12-14T00:51:00.437Z,140.10
2022-12-14T00:53:27.277Z,134.10
2022-12-14T00:55:53.638Z,127.90
2022-12-14T00:58:21.966Z,127.10
2022-12-14T01:01:01.741Z,132.30
2022-12-14T01:03:28.849Z,132.00
2022-12-14T01:05:56.040Z,117.00
2022-12-14T01:08:23.593Z,107.50
2022-12-14T01:10:51.040Z,103.10
2022-12-14T01:13:17.509Z,102.40
2022-12-14T01:15:44.053Z,105.00
2022-12-14T01:18:10.391Z,104.40
2022-12-14T01:20:36.830Z,100.90
2022-12-14T01:23:03.199Z,96.40
2022-12-14T01:25:29.630Z,97.90
2022-12-14T01:27:56.092Z,100.70
2022-12-14T01:30:22.413Z,100.90
2022-12-14T01:32:48.817Z,102.20
2022-12-14T01:35:15.440Z,97.50
2022-12-14T01:37:41.942Z,96.90
2022-12-14T01:40:08.735Z,83.80
2022-12-14T01:42:36.143Z,84.00
2022-12-14T01:45:03.889Z,82.30
2022-12-14T01:47:46.241Z,77.10
2022-12-14T01:50:34.126Z,86.70
2022-12-14T01:53:16.638Z,89.90
2022-12-14T01:55:49.736Z,94.00
2022-12-14T01:58:19.296Z,94.90
2022-12-14T02:00:46.656Z,98.50
2022-12-14T02:03:22.182Z,103.10
2022-12-14T02:05:57.390Z,113.50
2022-12-14T02:08:26.358Z,111.50
2022-12-14T02:10:55.152Z,121.20
2022-12-14T02:13:30.944Z,133.70
2022-12-14T02:15:57.532Z,130.40
2022-12-14T02:18:30.371Z,124.50
2022-12-14T02:21:18.640Z,107.50
2022-12-14T02:24:07.387Z,100.90
2022-12-14T02:26:46.319Z,104.00
2022-12-14T02:29:24.025Z,98.10
2022-12-14T02:32:28.297Z,100.20
2022-12-14T02:35:03.293Z,119.20
2022-12-14T02:37:49.091Z,110.30
2022-12-14T02:40:32.799Z,108.20
2022-12-14T02:43:27.821Z,100.00
2022-12-14T02:46:10.775Z,91.90
2022-12-14T02:48:44.733Z,83.60
2022-12-14T02:51:26.170Z,70.00
2022-12-14T02:54:09.174Z,71.70
2022-12-14T02:56:42.400Z,68.30
2022-12-14T02:59:09.763Z,68.20
2022-12-14T03:01:38.114Z,65.20
2022-12-14T03:04:06.631Z,74.30
2022-12-14T03:06:33.242Z,76.50
2022-12-14T03:09:07.970Z,78.80
2022-12-14T03:11:43.770Z,81.10
2022-12-14T03:14:18.516Z,72.70
2022-12-14T03:16:49.067Z,69.40
2022-12-14T03:19:22.207Z,65.70
2022-12-14T03:21:56.654Z,65.10
2022-12-14T03:24:28.463Z,51.00
2022-12-14T03:27:07.148Z,52.90
2022-12-14T03:29:42.559Z,58.60
2022-12-14T03:32:14.154Z,68.70
2022-12-14T03:34:50.882Z,67.70
2022-12-14T03:37:27.144Z,68.60
2022-12-14T03:39:54.569Z,75.70
2022-12-14T03:42:28.729Z,68.90
2022-12-14T03:45:18.283Z,69.80
2022-12-14T03:47:50.726Z,81.50
2022-12-14T03:50:40.370Z,76.90
2022-12-14T03:53:35.733Z,67.50
2022-12-14T03:56:31.043Z,72.50
2022-12-14T03:59:06.351Z,65.50
2022-12-14T04:01:58.055Z,71.60
2022-12-14T04:04:40.798Z,68.60
2022-12-14T04:07:30.129Z,69.80
2022-12-14T04:10:25.875Z,74.50
2022-12-14T04:13:20.038Z,78.70
2022-12-14T04:20:12.823Z,76.30
2022-12-14T04:22:45.524Z,73.60
2022-12-14T04:25:55.171Z,63.10
2022-12-14T04:29:00.665Z,58.50
2022-12-14T04:31:30.400Z,58.40
2022-12-14T04:34:03.551Z,58.80
2022-12-14T04:36:51.246Z,58.00
2022-12-14T04:39:35.229Z,55.30
2022-12-14T04:42:04.134Z,59.80
2022-12-14T04:44:35.459Z,57.80
2022-12-14T04:47:07.491Z,62.10
2022-12-14T04:49:49.237Z,62.50
2022-12-14T04:52:27.698Z,65.60
2022-12-14T04:55:12.872Z,63.40
2022-12-14T04:57:46.069Z,54.90
2022-12-14T05:00:13.925Z,53.10
2022-12-14T05:03:09.491Z,52.50
2022-12-14T05:05:52.639Z,53.60
2022-12-14T05:08:36.633Z,55.90
2022-12-14T05:11:50.090Z,54.30
2022-12-14T05:14:10.756Z,58.00
2022-12-14T05:16:38.141Z,60.80
2022-12-14T05:19:09.104Z,61.90
2022-12-14T05:21:48.733Z,61.10
2022-12-14T05:24:16.438Z,67.50
2022-12-14T05:26:43.265Z,81.50
2022-12-14T05:29:09.665Z,81.70
2022-12-14T05:31:36.111Z,62.70
2022-12-14T05:34:03.472Z,58.80
2022-12-14T05:36:30.410Z,54.60
2022-12-14T05:38:56.938Z,56.60
2022-12-14T05:41:23.391Z,56.10
2022-12-14T05:43:50.757Z,57.90
2022-12-14T05:46:17.754Z,61.00
2022-12-14T05:48:48.973Z,57.70
2022-12-14T05:51:16.329Z,53.60
2022-12-14T05:53:42.910Z,63.40
2022-12-14T05:56:10.529Z,63.40
2022-12-14T05:58:37.696Z,65.40
2022-12-14T06:01:13.938Z,53.60
2022-12-14T06:03:43.576Z,55.20
2022-12-14T06:06:11.891Z,53.50
2022-12-14T06:08:43.032Z,62.30
2022-12-14T06:11:15.238Z,65.40
2022-12-14T06:13:42.670Z,62.40
2022-12-14T06:16:21.993Z,66.20
2022-12-14T06:19:00.261Z,71.00
2022-12-14T06:21:29.765Z,69.70
2022-12-14T06:23:57.226Z,70.80
2022-12-14T06:26:25.473Z,69.80
2022-12-14T06:28:52.406Z,69.60
2022-12-14T06:31:21.759Z,64.50
2022-12-14T06:33:48.809Z,61.20
2022-12-14T06:36:26.818Z,59.80
2022-12-14T06:39:00.712Z,64.10
2022-12-14T06:41:27.175Z,61.30
2022-12-14T06:43:53.802Z,60.40
2022-12-14T06:46:21.929Z,63.80
2022-12-14T06:48:53.471Z,67.40
2022-12-14T06:51:21.507Z,70.30
2022-12-14T06:53:56.013Z,75.80
2022-12-14T06:56:25.203Z,76.40
2022-12-14T06:58:54.021Z,67.70
2022-12-14T07:01:23.751Z,67.90
2022-12-14T07:03:52.841Z,60.70
2022-12-14T07:06:19.727Z,69.80
2022-12-14T07:08:47.725Z,59.70
2022-12-14T07:11:20.180Z,64.20
2022-12-14T07:13:48.901Z,68.80
2022-12-14T07:16:26.161Z,67.20
2022-12-14T07:18:54.033Z,68.80
2022-12-14T07:21:22.307Z,66.80
2022-12-14T07:23:51.888Z,71.20
2022-12-14T07:26:25.076Z,72.70
2022-12-14T07:28:54.117Z,70.80
2022-12-14T07:31:26.496Z,75.40
2022-12-14T07:33:55.354Z,70.50
2022-12-14T07:36:24.525Z,70.00
2022-12-14T07:38:51.863Z,61.90
2022-12-14T07:41:22.987Z,62.70
2022-12-14T07:43:53.232Z,61.90
2022-12-14T07:46:25.759Z,54.80
2022-12-14T07:48:55.556Z,55.60
2022-12-14T07:51:26.756Z,56.60
2022-12-14T07:53:53.896Z,61.70
2022-12-14T07:56:27.073Z,54.60
2022-12-14T07:58:56.075Z,51.30
2022-12-14T08:01:31.651Z,46.40
2022-12-14T08:04:07.787Z,51.70
2022-12-14T08:06:35.274Z,48.10
2022-12-14T08:09:02.052Z,47.90
2022-12-14T08:11:28.615Z,49.20
2022-12-14T08:14:00.958Z,51.90
2022-12-14T08:16:28.567Z,47.80
2022-12-14T08:18:56.657Z,49.60
2022-12-14T08:21:25.361Z,51.80
2022-12-14T08:23:53.902Z,56.10
2022-12-14T08:26:22.034Z,62.90
2022-12-14T08:28:49.389Z,66.80
2022-12-14T08:31:20.759Z,63.80
2022-12-14T08:33:48.490Z,62.40
2022-12-14T08:36:19.538Z,62.00
2022-12-14T08:38:52.272Z,57.60
2022-12-14T08:41:19.112Z,47.30
2022-12-14T08:43:55.228Z,42.50
2022-12-14T08:46:23.653Z,44.50
2022-12-14T08:48:52.597Z,39.60
2022-12-14T08:51:19.836Z,43.40
2022-12-14T08:53:49.888Z,42.70
2022-12-14T08:56:18.968Z,45.40
2022-12-14T08:58:46.086Z,41.80
2022-12-14T09:01:19.427Z,42.40
2022-12-14T09:03:47.015Z,42.90
2022-12-14T09:06:20.403Z,43.40
2022-12-14T09:08:50.316Z,44.30
2022-12-14T09:11:19.389Z,41.70
2022-12-14T09:13:47.008Z,40.50
2022-12-14T09:16:18.042Z,42.70
2022-12-14T09:18:46.324Z,43.90
2022-12-14T09:21:17.480Z,43.60
2022-12-14T09:23:45.502Z,42.00
2022-12-14T09:26:16.300Z,40.50
2022-12-14T09:28:47.026Z,41.80
2022-12-14T09:31:18.329Z,43.00
2022-12-14T09:33:45.815Z,43.70
2022-12-14T09:36:16.091Z,45.10
2022-12-14T09:38:50.980Z,43.30
2022-12-14T09:41:22.128Z,39.20
2022-12-14T09:43:59.884Z,41.80
2022-12-14T09:46:59.141Z,42.40
2022-12-14T09:49:42.038Z,44.20
2022-12-14T09:52:17.208Z,45.60
2022-12-14T09:54:49.632Z,42.70
2022-12-14T09:57:37.306Z,42.90
2022-12-14T10:00:10.843Z,44.10
2022-12-14T10:03:07.768Z,47.00
2022-12-14T10:05:59.279Z,46.40
2022-12-14T10:08:36.027Z,43.20
2022-12-14T10:11:10.884Z,43.20
2022-12-14T10:14:06.920Z,44.60
2022-12-14T10:16:52.313Z,46.00
2022-12-14T10:19:40.862Z,45.70
2022-12-14T10:22:17.868Z,47.00
2022-12-14T10:24:48.673Z,43.20
2022-12-14T10:27:25.766Z,45.70
2022-12-14T10:29:59.569Z,45.50
2022-12-14T10:32:35.142Z,46.70
2022-12-14T10:35:48.663Z,47.80
2022-12-14T10:38:28.402Z,45.70
2022-12-14T10:41:05.442Z,44.90
2022-12-14T10:43:49.653Z,45.80
2022-12-14T10:46:52.431Z,43.70
2022-12-14T10:49:28.262Z,47.30
2022-12-14T10:52:00.708Z,48.10
2022-12-14T10:54:33.057Z,47.10
2022-12-14T10:57:00.427Z,44.60
2022-12-14T10:59:42.253Z,42.90
2022-12-14T11:02:16.563Z,44.70
2022-12-14T11:04:46.625Z,46.80
2022-12-14T11:07:16.250Z,43.40
2022-12-14T11:09:42.827Z,42.90
2022-12-14T11:12:26.948Z,43.90
2022-12-14T11:14:58.421Z,43.10
2022-12-14T11:17:36.462Z,44.20
2022-12-14T11:20:22.050Z,45.50
2022-12-14T11:22:54.269Z,44.60
2022-12-14T11:25:35.849Z,46.40
2022-12-14T11:28:31.259Z,47.20
2022-12-14T11:31:11.110Z,45.80
2022-12-14T11:33:45.626Z,44.00
2022-12-14T11:36:27.845Z,44.70
2022-12-14T11:39:00.714Z,44.10
2022-12-14T11:41:35.827Z,45.80
2022-12-14T11:44:23.999Z,49.00
2022-12-14T11:47:01.278Z,49.90
2022-12-14T11:49:43.293Z,46.00
2022-12-14T11:52:16.909Z,49.50
2022-12-14T11:54:50.456Z,48.80
2022-12-14T11:57:25.414Z,49.90
2022-12-14T11:59:57.087Z,50.30
2022-12-14T12:02:26.780Z,48.40
2022-12-14T12:04:57.670Z,54.10
2022-12-14T12:07:34.352Z,52.20
2022-12-14T12:10:30.100Z,54.40
2022-12-14T12:13:00.088Z,50.40
2022-12-14T12:15:36.396Z,52.60
2022-12-14T12:18:13.081Z,47.20
2022-12-14T12:20:49.527Z,52.80
2022-12-14T12:23:22.556Z,52.70
2022-12-14T12:25:52.574Z,51.30
2022-12-14T12:28:25.827Z,50.20
2022-12-14T12:31:07.362Z,51.90
2022-12-14T12:33:54.734Z,56.00
2022-12-14T12:36:24.255Z,50.80
2022-12-14T12:39:05.390Z,53.90
2022-12-14T12:42:12.325Z,49.40
2022-12-14T12:45:05.665Z,48.50
2022-12-14T12:47:47.091Z,49.60
2022-12-14T12:50:23.566Z,52.90
2022-12-14T12:53:08.225Z,52.70
2022-12-14T12:55:42.393Z,52.40
2022-12-14T12:58:20.470Z,55.70
2022-12-14T13:00:51.143Z,61.20
2022-12-14T13:03:24.642Z,59.60
2022-12-14T13:05:54.852Z,61.80
2022-12-14T13:08:35.651Z,60.60
2022-12-14T13:11:26.282Z,67.90
2022-12-14T13:14:01.001Z,73.00
2022-12-14T13:16:33.559Z,72.00
2022-12-14T13:19:48.222Z,74.40
2022-12-14T13:22:05.148Z,68.30
2022-12-14T13:24:33.245Z,65.20
2022-12-14T13:27:20.457Z,68.40
2022-12-14T13:30:32.277Z,68.90
2022-12-14T13:33:26.871Z,65.50
2022-12-14T13:36:21.864Z,63.20
2022-12-14T13:39:19.238Z,68.60
2022-12-14T13:42:02.092Z,66.50
2022-12-14T13:44:53.862Z,71.00
2022-12-14T13:47:25.601Z,71.90
2022-12-14T13:50:26.673Z,71.80
2022-12-14T13:52:46.012Z,65.00
2022-12-14T13:55:49.068Z,63.10
2022-12-14T13:58:18.291Z,66.50
2022-12-14T14:00:45.165Z,65.40
2022-12-14T14:03:33.546Z,69.40
2022-12-14T14:06:23.087Z,69.90
2022-12-14T14:08:52.537Z,74.80
2022-12-14T14:11:38.486Z,71.30
2022-12-14T14:14:22.688Z,73.10
2022-12-14T14:16:56.164Z,71.20
2022-12-14T14:19:25.868Z,79.00
2022-12-14T14:22:22.990Z,78.80
2022-12-14T14:25:09.557Z,76.60
2022-12-14T14:27:50.383Z,75.80
2022-12-14T14:31:15.721Z,72.80
2022-12-14T14:33:48.636Z,74.10
2022-12-14T14:36:25.355Z,67.20
2022-12-14T14:38:55.304Z,59.60
2022-12-14T14:41:54.143Z,66.70
2022-12-14T14:44:37.896Z,72.20
2022-12-14T14:47:15.139Z,75.50
2022-12-14T14:49:43.308Z,74.50
2022-12-14T14:52:39.482Z,69.70
2022-12-14T14:58:27.052Z,80.20
2022-12-14T15:01:39.925Z,74.70
2022-12-14T15:04:19.979Z,73.10
2022-12-14T15:07:02.110Z,77.20
2022-12-14T15:09:35.403Z,73.90
2022-12-14T15:12:18.761Z,72.60
2022-12-14T15:14:53.161Z,85.70
2022-12-14T15:17:24.372Z,91.30
2022-12-14T15:19:56.124Z,88.60
2022-12-14T15:22:30.371Z,96.10
2022-12-14T15:25:00.309Z,86.40
2022-12-14T15:27:36.693Z,74.60
2022-12-14T15:30:26.391Z,85.00
2022-12-14T15:33:07.657Z,86.40
2022-12-14T15:35:38.253Z,83.80
2022-12-14T15:38:09.146Z,76.10
2022-12-14T15:40:43.799Z,79.40
2022-12-14T15:43:18.146Z,81.50
2022-12-14T15:45:51.134Z,76.20
2022-12-14T15:48:33.781Z,82.20
2022-12-14T15:51:20.635Z,72.80
2022-12-14T15:53:53.695Z,76.80
2022-12-14T15:56:23.298Z,71.30
2022-12-14T15:58:52.374Z,78.50
2022-12-14T16:01:30.612Z,57.30
2022-12-14T16:04:04.569Z,68.00
2022-12-14T16:06:37.714Z,72.50
2022-12-14T16:09:10.259Z,77.90
2022-12-14T16:11:45.270Z,65.30
2022-12-14T16:14:43.672Z,72.80
2022-12-14T16:17:36.901Z,67.80
2022-12-14T16:20:20.392Z,71.20
2022-12-14T16:23:27.903Z,76.80
2022-12-14T16:26:15.640Z,75.70
2022-12-14T16:28:49.024Z,74.80
2022-12-14T16:31:30.048Z,71.50
2022-12-14T16:34:14.457Z,72.20
2022-12-14T16:36:42.123Z,76.90
2022-12-14T16:39:21.927Z,89.40
2022-12-14T16:41:57.927Z,93.60
2022-12-14T16:44:31.311Z,72.80
2022-12-14T16:47:11.677Z,72.00
2022-12-14T16:49:54.394Z,73.40
2022-12-14T16:52:30.713Z,52.10
2022-12-14T16:55:19.858Z,67.70
2022-12-14T16:57:47.329Z,60.90
2022-12-14T17:00:37.538Z,70.50
2022-12-14T17:03:26.998Z,65.10
2022-12-14T17:06:06.404Z,68.90
2022-12-14T17:08:36.323Z,74.10
2022-12-14T17:11:04.069Z,74.60
2022-12-14T17:13:31.987Z,73.10
2022-12-14T17:16:04.225Z,63.90
2022-12-14T17:18:35.229Z,78.60
2022-12-14T17:21:05.237Z,75.50
2022-12-14T17:23:35.659Z,75.40
2022-12-14T17:26:03.991Z,83.60
2022-12-14T17:28:34.921Z,86.70
2022-12-14T17:31:04.258Z,79.90
2022-12-14T17:33:32.968Z,75.70
2022-12-14T17:36:01.439Z,77.90
2022-12-14T17:38:31.607Z,84.30
2022-12-14T17:41:01.590Z,84.80
2022-12-14T17:43:30.668Z,78.80
2022-12-14T17:46:03.031Z,78.20
2022-12-14T17:48:30.708Z,75.00
2022-12-14T17:50:59.658Z,107.00
2022-12-14T17:53:39.996Z,73.10
2022-12-14T17:56:16.128Z,74.60
2022-12-14T17:58:46.067Z,72.30
2022-12-14T18:01:22.934Z,70.40
2022-12-14T18:03:52.282Z,69.10
2022-12-14T18:06:19.474Z,73.90
2022-12-14T18:08:48.247Z,65.50
2022-12-14T18:11:19.980Z,78.60
2022-12-14T18:13:47.814Z,71.00
2022-12-14T18:16:19.494Z,74.80
2022-12-14T18:18:46.936Z,72.30
2022-12-14T18:21:20.895Z,69.30
2022-12-14T18:23:49.839Z,72.80
2022-12-14T18:26:24.145Z,74.10
2022-12-14T18:28:53.351Z,71.30
2022-12-14T18:31:40.862Z,68.90
2022-12-14T18:34:09.612Z,72.10
2022-12-14T18:36:36.580Z,65.40
2022-12-14T18:39:04.635Z,67.10
2022-12-14T18:41:33.230Z,63.50
2022-12-14T18:44:03.812Z,67.50
2022-12-14T18:46:31.569Z,67.50
2022-12-14T18:48:59.424Z,65.90
2022-12-14T18:51:27.284Z,68.50
2022-12-14T18:53:57.102Z,68.00
2022-12-14T18:56:35.588Z,65.90
2022-12-14T18:59:03.461Z,66.70
2022-12-14T19:01:31.474Z,75.60
2022-12-14T19:04:01.199Z,71.10
2022-12-14T19:06:45.287Z,71.80
2022-12-14T19:09:14.692Z,77.30
2022-12-14T19:11:42.396Z,55.70
2022-12-14T19:14:11.174Z,66.40
2022-12-14T19:16:38.995Z,69.10
2022-12-14T19:19:06.500Z,66.70
2022-12-14T19:21:34.070Z,80.20
2022-12-14T19:24:02.270Z,76.00
2022-12-14T19:26:30.660Z,69.50
2022-12-14T19:28:57.981Z,62.40
2022-12-14T19:31:25.637Z,66.20
2022-12-14T19:33:53.825Z,70.10
2022-12-14T19:36:20.945Z,72.70
2022-12-14T19:38:49.860Z,78.50
2022-12-14T19:41:20.944Z,70.10
2022-12-14T19:43:48.241Z,65.70
2022-12-14T19:46:18.276Z,69.40
2022-12-14T19:48:46.087Z,64.40
2022-12-14T19:51:14.690Z,68.20
2022-12-14T19:53:43.893Z,67.20
2022-12-14T19:56:14.991Z,61.50
2022-12-14T19:58:42.491Z,60.60
2022-12-14T20:01:12.369Z,60.60
2022-12-14T20:03:39.759Z,62.00
2022-12-14T20:06:07.934Z,61.60
2022-12-14T20:08:37.316Z,68.60
2022-12-14T20:11:10.718Z,66.40
2022-12-14T20:13:38.224Z,69.70
2022-12-14T20:16:06.514Z,73.50
2022-12-14T20:18:33.739Z,71.50
2022-12-14T20:21:05.353Z,69.10
2022-12-14T20:23:34.821Z,73.10
2022-12-14T20:26:03.691Z,55.60
2022-12-14T20:28:30.853Z,76.10
2022-12-14T20:30:58.232Z,75.50
2022-12-14T20:33:30.151Z,81.40
2022-12-14T20:35:58.809Z,80.20
2022-12-14T20:38:26.003Z,77.90
2022-12-14T20:40:53.640Z,73.50
2022-12-14T20:43:21.192Z,79.50
2022-12-14T20:45:47.964Z,78.50
2022-12-14T20:48:14.431Z,76.50
2022-12-14T20:50:43.018Z,81.10
2022-12-14T20:53:10.559Z,73.00
2022-12-14T20:55:37.480Z,68.80
2022-12-14T20:58:04.197Z,78.30
2022-12-14T21:00:31.261Z,82.50
2022-12-14T21:02:58.065Z,71.60
2022-12-14T21:05:24.867Z,83.10
2022-12-14T21:07:51.393Z,75.20
2022-12-14T21:10:18.138Z,85.30
2022-12-14T21:12:47.432Z,85.20
2022-12-14T21:15:14.351Z,80.90
2022-12-14T21:17:41.051Z,65.90
2022-12-14T21:20:10.988Z,72.00
2022-12-14T21:22:38.241Z,58.90
2022-12-14T21:25:07.328Z,70.00
2022-12-14T21:27:38.894Z,64.90
2022-12-14T21:30:10.447Z,71.10
2022-12-14T21:32:37.716Z,66.40
2022-12-14T21:35:05.146Z,62.50
2022-12-14T21:37:31.697Z,65.10
2022-12-14T21:39:59.437Z,61.70
2022-12-14T21:42:26.132Z,64.50
2022-12-14T21:44:55.570Z,66.10
2022-12-14T21:47:25.793Z,66.10
2022-12-14T21:49:52.703Z,65.60
2022-12-14T21:52:22.576Z,69.30
2022-12-14T21:54:50.859Z,65.10
2022-12-14T21:57:49.893Z,57.10
2022-12-14T22:00:18.660Z,57.70
2022-12-14T22:02:45.197Z,66.30
2022-12-14T22:05:12.398Z,69.30
2022-12-14T22:07:38.997Z,60.60
2022-12-14T22:10:05.896Z,61.20
2022-12-14T22:12:32.398Z,66.00
2022-12-14T22:14:59.139Z,66.80
2022-12-14T22:17:26.088Z,69.50
2022-12-14T22:19:54.450Z,69.30
2022-12-14T22:22:20.998Z,65.80
2022-12-14T22:24:50.451Z,66.80
2022-12-14T22:27:17.151Z,73.00
2022-12-14T22:29:43.842Z,73.00
2022-12-14T22:32:17.667Z,73.30
2022-12-14T22:34:45.170Z,76.00
2022-12-14T22:37:16.043Z,75.50
2022-12-14T22:39:42.987Z,75.40
2022-12-14T22:42:09.996Z,75.00
2022-12-14T22:44:36.942Z,79.00
2022-12-14T22:47:03.603Z,82.30
2022-12-14T22:49:29.985Z,83.80
2022-12-14T22:54:41.125Z,92.00
2022-12-14T22:57:14.432Z,88.40
2022-12-14T22:59:47.044Z,102.10
2022-12-14T23:02:13.940Z,118.90
2022-12-14T23:04:40.706Z,125.00
2022-12-14T23:07:07.305Z,130.00
2022-12-14T23:09:52.372Z,128.80
2022-12-14T23:12:37.882Z,108.50
2022-12-14T23:15:23.220Z,116.30
2022-12-14T23:18:12.829Z,100.60
2022-12-14T23:20:57.819Z,93.00
2022-12-14T23:23:42.640Z,90.10
2022-12-14T23:26:27.552Z,92.60
2022-12-14T23:29:12.522Z,95.50
2022-12-14T23:31:57.280Z,87.60
2022-12-14T23:34:42.014Z,93.70
2022-12-14T23:37:27.009Z,92.60
2022-12-14T23:40:11.928Z,94.20
2022-12-14T23:42:56.692Z,90.50
2022-12-14T23:45:41.584Z,92.30
2022-12-14T23:48:26.952Z,90.00
2022-12-14T23:51:12.019Z,86.60
2022-12-14T23:53:56.805Z,86.40
2022-12-14T23:56:41.769Z,88.50
2022-12-14T23:59:31.984Z,85.30
